Motte Rimrock Reserve, California Weather observations

Data are for 10 minute period ending at time listed.
 Day   Time   Solar   Ave.   Ave.  Ave.  Vector  Max.   Baro.   Total    
  of    of     Rad.   Air    Rel.  Wind   Wind   Wind  Press.  Precip.   
Year   Day            Temp.  Hum.  Speed  Dir.   Gust                    
2014   (PST)  Kw/m2    F      %     mph   deg.    mph    mb.     in.     
-------------------------------------------------------------------------
 297   19:30   0.00   74.8    17    5.5    26     7.1   948.9    0.00 
 297   19:40   0.00   74.6    18    5.0     6     7.2   949.0    0.00 
 297   19:50   0.00   72.7    18    4.5   340     5.5   949.1    0.00 
 297   20:00   0.00   72.9    18    3.3     4     4.5   949.2    0.00 
 297   20:10   0.00   73.8    16    3.3   347     4.2   949.3    0.00 
 297   20:20   0.00   73.3    17    1.7   308     2.9   949.4    0.00 
 297   20:30   0.00   73.7    16    3.6   334     5.2   949.4    0.00 
 297   20:40   0.00   73.7    16    2.5   360     5.0   949.5    0.00 
 297   20:50   0.00   73.9    16    0.7    84     2.9   949.6    0.00 
 297   21:00   0.00   73.5    17    1.9   118     3.2   949.6    0.00 
 297   21:10   0.00   72.7    18    2.2   143     4.8   949.6    0.00 
 297   21:20   0.00   71.8    20    4.8   138     6.5   949.8    0.00 
 297   21:30   0.00   70.2    21    5.4   143     7.1   949.8    0.00 
 297   21:40   0.00   70.2    21    5.1   146     6.8   949.9    0.00 
 297   21:50   0.00   70.5    22    4.7   145     5.8   949.9    0.00 
 297   22:00   0.00   70.5    22    4.6   137     6.6   949.9    0.00 
 297   22:10   0.00   69.9    22    4.0   140     5.1   950.0    0.00 
 297   22:20   0.00   70.3    21    3.8   134     4.4   950.0    0.00 
 297   22:30   0.00   70.5    21    4.8   130     5.3   950.0    0.00 
 297   22:40   0.00   69.7    21    5.1   119     6.0   950.1    0.00 
 297   22:50   0.00   68.8    22    3.4   126     4.7   950.1    0.00 
 297   23:00   0.00   69.2    23    5.1   124     5.7   950.0    0.00 
 297   23:10   0.00   69.6    23    3.9   126     4.8   950.0    0.00 
 297   23:20   0.00   69.2    23    3.3   148     4.1   950.0    0.00 
 297   23:30   0.00   69.0    23    3.2   152     3.7   950.1    0.00 
 297   23:40   0.00   69.2    23    2.9   158     3.7   950.0    0.00 
 297   23:50   0.00   69.0    24    3.1   150     3.5   950.0    0.00 
 298    0:00   0.00   69.1    25    3.2   156     3.8   950.0    0.00 
 298    0:10   0.00   69.3    25    2.9   131     3.4   949.9    0.00 
 298    0:20   0.00   69.2    25    3.1    99     3.9   949.9    0.00 
 298    0:30   0.00   69.0    25    4.0    68     4.6   949.8    0.00 
 298    0:40   0.00   68.8    28    4.1    48     5.0   949.9    0.00 
 298    0:50   0.00   68.8    30    3.4    61     3.9   949.9    0.00 
 298    1:00   0.00   69.2    29    2.5    68     3.6   949.8    0.00 
 298    1:10   0.00   67.9    30    0.4    82     0.9   949.9    0.00 
 298    1:20   0.00   67.8    31    0.0     0     0.0   949.8    0.00 
 298    1:30   0.00   67.8    31    1.2    58     2.6   949.7    0.00 
 298    1:40   0.00   68.9    30    2.7    54     3.3   949.5    0.00 
 298    1:50   0.00   69.4    30    1.9    53     2.2   949.5    0.00 
 298    2:00   0.00   69.4    30    1.5    53     2.0   949.4    0.00 
 298    2:10   0.00   69.9    28    1.8    35     2.3   949.3    0.00 
 298    2:20   0.00   70.0    28    0.3    34     1.4   949.3    0.00 
 298    2:30   0.00   69.6    28    2.2   201     3.5   949.3    0.00 
 298    2:40   0.00   69.3    28    3.0   187     3.8   949.2    0.00 
 298    2:50   0.00   68.7    29    3.2   187     3.7   949.1    0.00 
 298    3:00   0.00   68.3    30    3.8   195     4.4   949.0    0.00 
 298    3:10   0.00   68.2    28    3.5   194     4.2   949.0    0.00 
 298    3:20   0.00   67.6    28    3.8   190     4.8   948.9    0.00 
 298    3:30   0.00   67.7    27    4.6   190     5.3   948.9    0.00 
 298    3:40   0.00   67.3    27    4.9   194     5.5   948.9    0.00 
 298    3:50   0.00   66.7    28    5.1   190     6.1   948.9    0.00 
 298    4:00   0.00   66.4    29    5.3   189     6.3   948.8    0.00 
 298    4:10   0.00   66.5    29    5.1   202     5.8   948.8    0.00 
 298    4:20   0.00   66.6    28    5.7   214     6.0   948.9    0.00 
 298    4:30   0.00   67.5    27    5.5   203     6.4   948.9    0.00 
 298    4:40   0.00   67.2    27    4.7   184     5.6   948.9    0.00 
 298    4:50   0.00   67.4    28    5.0   199     5.6   949.0    0.00 
 298    5:00   0.00   67.1    28    3.9   188     4.5   949.0    0.00 
 298    5:10   0.00   67.1    28    4.7   180     5.0   949.1    0.00 
 298    5:20   0.00   66.8    28    5.9   183     6.9   949.2    0.00 
 298    5:30   0.00   66.3    28    6.2   184     6.7   949.3    0.00 
 298    5:40   0.00   66.2    29    5.4   199     5.8   949.2    0.00 
 298    5:50   0.00   66.7    29    5.0   198     5.8   949.2    0.00 
 298    6:00   0.00   67.6    30    4.1   193     4.8   949.2    0.00 
 298    6:10   0.00   67.1    30    4.3   172     5.1   949.4    0.00 
 298    6:20   0.01   66.4    31    4.8   163     5.3   949.4    0.00 
 298    6:30   0.03   66.9    31    4.1   153     4.6   949.4    0.00 
 298    6:40   0.05   67.8    32    3.3   154     4.0   949.5    0.00 
 298    6:50   0.08   68.6    31    3.1   148     4.1   949.6    0.00 
 298    7:00   0.06   68.1    31    3.4   133     4.0   949.8    0.00 
 298    7:10   0.07   67.2    31    2.7   179     3.7   949.9    0.00 
 298    7:20   0.08   67.2    31    3.2   190     4.2   950.1    0.00 
 298    7:30   0.09   67.6    30    3.9   192     5.4   950.3    0.00 
 298    7:40   0.12   67.2    31    3.8   181     5.3   950.4    0.00 
 298    7:50   0.17   68.4    30    3.3   181     5.0   950.5    0.00 
 298    8:00   0.28   70.0    29    3.4   178     4.7   950.6    0.00 
 298    8:10   0.35   71.7    28    4.4   190     5.8   950.6    0.00 
 298    8:20   0.27   73.1    27    4.3   192     5.8   950.7    0.00 
 298    8:30   0.27   73.1    28    4.4   191     6.1   950.8    0.00 
 298    8:40   0.37   73.9    27    4.6   180     7.2   950.8    0.00 
 298    8:50   0.44   74.9    27    5.2   177     6.8   950.9    0.00 
 298    9:00   0.47   75.8    26    5.1   161     7.0   950.9    0.00 
 298    9:10   0.52   76.6    26    4.2   161     6.0   950.8    0.00 
 298    9:20   0.49   77.3    26    4.2   153     6.9   950.8    0.00 
 298    9:30   0.58   77.7    25    3.3   157     5.6   950.8    0.00 
 298    9:40   0.59   78.7    25    3.4   175     6.0   950.9    0.00 
 298    9:50   0.62   78.9    25    2.9   231     5.9   950.9    0.00 
 298   10:00   0.69   80.5    24    2.8   228     5.5   950.8    0.00 
 298   10:10   0.59   79.9    25    2.7   266     5.8   950.6    0.00 
 298   10:20   0.64   79.7    25    3.1   218     8.0   950.5    0.00 
 298   10:30   0.67   80.9    24    1.7   205     5.1   950.3    0.00 
 298   10:40   0.62   82.0    23    2.2   123     5.1   950.2    0.00 
 298   10:50   0.69   82.2    23    3.3    49     7.5   950.0    0.00 
 298   11:00   0.69   81.6    23    4.6    75     7.5   949.9    0.00 
 298   11:10   0.70   82.0    23    6.6   130    13.0   949.7    0.00 
 298   11:20   0.70   82.3    23    5.5   171    11.7   949.6    0.00 
 298   11:30   0.70   83.2    23    4.5   174     9.4   949.4    0.00 
 298   11:40   0.71   83.0    23    4.0   235    10.8   949.4    0.00 
 298   11:50   0.73   82.8    23    4.7   172     8.6   949.3    0.00 
 298   12:00   0.40   83.7    22    5.1   166    12.1   949.1    0.00 
 298   12:10   0.20   81.2    24    6.6   299    11.9   949.0    0.00 
 298   12:20   0.59   81.5    24    7.7   275    13.5   949.0    0.00 
 298   12:30   0.73   82.7    23    7.8   341    12.9   949.0    0.00 
 298   12:40   0.68   82.8    22   12.5   303    18.6   948.8    0.00 
 298   12:50   0.28   81.0    23   15.4   304    21.0   948.8    0.00 
 298   13:00   0.24   80.0    23   15.1   305    21.9   948.8    0.00 
 298   13:10   0.26   79.7    24   16.1   300    21.7   948.9    0.00 
 298   13:20   0.30   79.2    26   17.5   305    22.6   948.9    0.00 
 298   13:30   0.32   79.1    26   17.0   309    21.9   948.9    0.00 
 298   13:40   0.49   79.7    25   16.1   308    22.2   948.9    0.00 
 298   13:50   0.55   80.4    24   16.3   323    20.0   948.8    0.00 
 298   14:00   0.52   80.6    24   13.2   312    18.5   948.7    0.00 
 298   14:10   0.50   80.7    25   13.8   312    18.0   948.6    0.00 
 298   14:20   0.48   81.1    25   13.8   310    20.5   948.5    0.00 
 298   14:30   0.45   81.2    25   13.9   303    19.7   948.5    0.00 
 298   14:40   0.42   80.7    26   14.6   314    17.8   948.4    0.00 
 298   14:50   0.39   80.3    27   14.7   312    19.1   948.3    0.00 
 298   15:00   0.37   79.7    27   15.5   308    20.8   948.3    0.00 
 298   15:10   0.34   79.9    27   15.9   301    22.5   948.2    0.00 
 298   15:20   0.27   79.2    28   16.0   296    21.0   948.2    0.00 
 298   15:30   0.21   78.9    28   16.3   300    20.5   948.2    0.00 
 298   15:40   0.22   78.9    27   15.8   298    21.5   948.1    0.00 
 298   15:50   0.25   78.6    26   16.2   303    20.8   948.1    0.00 
 298   16:00   0.19   77.9    25   16.4   300    20.4   948.1    0.00 
 298   16:10   0.14   76.9    25   15.7   303    21.9   948.1    0.00 
 298   16:20   0.09   75.8    27   14.0   301    18.4   948.1    0.00 
 298   16:30   0.07   74.9    30   14.8   302    19.8   948.1    0.00 
 298   16:40   0.06   74.1    32   15.1   300    19.1   948.1    0.00 
 298   16:50   0.04   73.7    34   13.0   304    17.7   948.2    0.00 
 298   17:00   0.01   72.9    36   13.5   302    18.8   948.2    0.00 
 298   17:10   0.00   72.2    38   12.3   304    16.5   948.2    0.00 
 298   17:20   0.00   71.6    40   12.1   307    15.4   948.3    0.00 
 298   17:30   0.00   71.0    44   12.3   309    15.7   948.4    0.00 
 298   17:40   0.00   70.5    45   13.0   310    15.9   948.5    0.00 
 298   17:50   0.00   70.0    46   11.9   311    14.8   948.5    0.00 
 298   18:00   0.00   69.7    48   12.2   310    14.9   948.5    0.00 
 298   18:10   0.00   69.4    47   12.5   306    15.3   948.5    0.00 
 298   18:20   0.00   69.3    44   13.2   302    16.1   948.5    0.00 
 298   18:30   0.00   69.2    42   12.8   299    14.9   948.5    0.00 
 298   18:40   0.00   69.4    39   12.1   304    15.6   948.6    0.00 
 298   18:50   0.00   69.3    38    8.0   312    12.2   948.8    0.00 
 298   19:00   0.00   68.4    41    2.1   157     5.2   949.0    0.00 
 298   19:10   0.00   68.9    40    2.4   344     5.0   949.1    0.00 
 298   19:20   0.00   68.3    41    3.4   346     4.5   949.1    0.00 

Return to Motte Rimrock Reserve graphs page.


Western Regional Climate Center,wrcc@dri.edu